Time;durP1;ratioP1;P1;durP2;ratioP2;P2;SDS_P1;SDS_P2;PMS_P1;PMS_P2;Temp;Humidity;BMP_temperature;BMP_pressure;BME280_temperature;BME280_humidity;BME280_pressure;Samples;Min_cycle;Max_cycle;Signal;HPM_P1;HPM_P2
2021/06/29 04:02:07;;;;;;;14.47;13.40;;;20.80;99.90;;;;;;5240498;23;20555;-68
2021/06/29 04:04:33;;;;;;;16.30;15.10;;;20.80;99.90;;;;;;4975200;28;20497;-67
2021/06/29 04:07:03;;;;;;;14.53;13.43;;;20.80;99.90;;;;;;4975178;28;20476;-67
2021/06/29 04:09:29;;;;;;;13.30;12.50;;;20.80;99.90;;;;;;4975856;28;20578;-69
2021/06/29 04:11:56;;;;;;;13.83;12.83;;;20.90;99.90;;;;;;4960248;28;20501;-69
2021/06/29 04:14:23;;;;;;;14.17;13.13;;;21.00;99.90;;;;;;4955697;29;20471;-69
2021/06/29 04:16:50;;;;;;;13.87;12.97;;;21.00;99.90;;;;;;4956138;29;20786;-69
2021/06/29 04:19:18;;;;;;;14.10;13.10;;;21.10;99.90;;;;;;4956259;29;20920;-70
2021/06/29 04:21:45;;;;;;;13.80;13.00;;;21.20;99.90;;;;;;4956745;28;20491;-69
2021/06/29 04:24:11;;;;;;;12.97;12.17;;;21.30;99.90;;;;;;4955571;29;20475;-66
2021/06/29 04:26:38;;;;;;;13.17;12.43;;;21.40;99.90;;;;;;4956279;29;20512;-67
2021/06/29 04:29:05;;;;;;;13.50;12.33;;;21.50;99.90;;;;;;4955887;29;20823;-67
2021/06/29 04:31:32;;;;;;;12.07;11.37;;;21.60;99.90;;;;;;4956063;28;20503;-67
2021/06/29 04:33:59;;;;;;;12.50;11.70;;;21.60;99.90;;;;;;4955574;29;20480;-67
2021/06/29 04:36:27;;;;;;;13.77;12.87;;;21.70;99.90;;;;;;4955997;29;20948;-67
2021/06/29 04:38:53;;;;;;;12.37;11.63;;;21.70;99.90;;;;;;4955504;28;20539;-67
2021/06/29 04:41:20;;;;;;;13.47;12.67;;;21.80;99.90;;;;;;4954954;28;21008;-67
2021/06/29 04:43:47;;;;;;;12.60;11.80;;;21.80;99.90;;;;;;4954853;29;20464;-67
2021/06/29 04:46:14;;;;;;;12.30;11.60;;;21.90;99.90;;;;;;4955810;29;20497;-67
2021/06/29 04:48:41;;;;;;;13.50;12.50;;;22.00;99.90;;;;;;4955208;29;20937;-67
2021/06/29 04:51:08;;;;;;;12.60;11.80;;;22.00;99.90;;;;;;4955541;28;21001;-67
2021/06/29 04:53:36;;;;;;;12.00;11.20;;;22.20;99.90;;;;;;4956185;29;20464;-70
2021/06/29 04:56:03;;;;;;;12.30;11.60;;;22.20;99.90;;;;;;4955600;29;20495;-70
2021/06/29 04:58:30;;;;;;;13.20;12.40;;;22.30;99.90;;;;;;4954275;29;20468;-69
2021/06/29 05:00:57;;;;;;;13.17;12.00;;;22.40;99.90;;;;;;4955038;28;20492;-70
2021/06/29 05:03:23;;;;;;;12.07;11.33;;;22.40;99.90;;;;;;4955281;29;20457;-70
2021/06/29 05:05:50;;;;;;;12.07;11.30;;;22.40;99.90;;;;;;4955438;28;20899;-70
2021/06/29 05:08:17;;;;;;;12.37;11.67;;;22.40;99.90;;;;;;4954413;29;20472;-68
2021/06/29 05:10:45;;;;;;;12.30;11.40;;;22.50;99.90;;;;;;4954896;28;20507;-70
2021/06/29 05:13:11;;;;;;;12.67;11.80;;;22.70;99.90;;;;;;4949811;29;20464;-69
2021/06/29 05:15:38;;;;;;;11.53;10.50;;;22.90;99.90;;;;;;4954905;29;20464;-69
2021/06/29 05:18:05;;;;;;;11.07;10.33;;;23.00;99.90;;;;;;4954166;29;20464;-69
2021/06/29 05:20:32;;;;;;;11.00;10.20;;;23.20;99.90;;;;;;4954061;28;20500;-70
2021/06/29 05:22:59;;;;;;;10.80;10.00;;;23.40;99.90;;;;;;4952626;29;20487;-70
2021/06/29 05:25:25;;;;;;;10.63;9.87;;;23.30;99.90;;;;;;4952397;29;20471;-70
2021/06/29 05:27:53;;;;;;;9.90;9.40;;;23.30;99.90;;;;;;4953593;29;20464;-68
2021/06/29 05:30:21;;;;;;;10.13;9.53;;;23.10;99.90;;;;;;4944660;29;20498;-68
2021/06/29 05:32:47;;;;;;;10.37;9.87;;;23.10;99.90;;;;;;4950909;29;20863;-68
2021/06/29 05:35:16;;;;;;;11.10;10.50;;;23.00;99.90;;;;;;4953691;28;20465;-67
2021/06/29 05:37:43;;;;;;;10.77;9.80;;;22.90;99.90;;;;;;4955083;29;20487;-68
2021/06/29 05:40:10;;;;;;;10.63;10.10;;;22.80;99.90;;;;;;4954255;28;20461;-68
2021/06/29 05:42:37;;;;;;;10.13;9.37;;;22.70;99.90;;;;;;4953081;29;20480;-68
2021/06/29 05:45:07;;;;;;;10.80;10.17;;;22.60;99.90;;;;;;4951381;29;20476;-68
2021/06/29 05:47:35;;;;;;;11.67;11.00;;;22.60;99.90;;;;;;4949544;28;20465;-69
2021/06/29 05:50:02;;;;;;;11.10;10.40;;;22.50;99.90;;;;;;4953369;28;20519;-68
2021/06/29 05:52:28;;;;;;;11.20;10.40;;;22.60;99.90;;;;;;4954131;28;20497;-69
2021/06/29 05:54:56;;;;;;;10.40;9.80;;;22.60;99.90;;;;;;4952764;29;20468;-69
2021/06/29 05:57:22;;;;;;;10.87;10.20;;;22.70;99.90;;;;;;4953857;29;20532;-69
2021/06/29 05:59:49;;;;;;;10.57;10.07;;;22.80;99.90;;;;;;4953358;29;20477;-68
2021/06/29 06:02:17;;;;;;;10.90;10.17;;;23.00;99.90;;;;;;4951070;28;20504;-68
2021/06/29 06:04:44;;;;;;;10.13;9.60;;;23.60;99.90;;;;;;4953110;29;20475;-68
2021/06/29 06:07:11;;;;;;;10.60;10.10;;;24.10;99.90;;;;;;4953128;29;20468;-68
2021/06/29 06:09:37;;;;;;;9.83;9.33;;;24.60;99.90;;;;;;4952841;29;20918;-69
2021/06/29 06:12:05;;;;;;;9.87;9.37;;;25.10;99.90;;;;;;4950928;28;20988;-68
2021/06/29 06:14:32;;;;;;;9.80;9.20;;;25.40;99.90;;;;;;4952699;29;20460;-69
2021/06/29 06:16:58;;;;;;;10.17;9.57;;;25.60;99.90;;;;;;4949988;28;20473;-68
2021/06/29 06:19:26;;;;;;;10.07;9.47;;;26.00;99.90;;;;;;4952597;29;20458;-69
2021/06/29 06:21:53;;;;;;;9.27;8.90;;;26.50;99.90;;;;;;4957542;28;20494;-69
2021/06/29 06:24:19;;;;;;;9.80;9.40;;;27.10;99.90;;;;;;4965277;29;20582;-69
2021/06/29 06:26:46;;;;;;;8.90;8.50;;;27.30;99.90;;;;;;4949529;28;21038;-68
2021/06/29 06:29:13;;;;;;;8.33;8.03;;;27.60;99.90;;;;;;4961934;28;20467;-68
2021/06/29 06:31:40;;;;;;;7.80;7.50;;;27.80;99.90;;;;;;4951539;28;20486;-69
2021/06/29 06:34:07;;;;;;;8.23;7.93;;;27.90;99.90;;;;;;4952074;29;20457;-69
2021/06/29 06:36:35;;;;;;;8.87;8.20;;;28.00;99.90;;;;;;4950039;29;20572;-68
2021/06/29 06:39:02;;;;;;;9.10;8.80;;;28.30;99.90;;;;;;4958127;28;20521;-68
2021/06/29 06:41:28;;;;;;;7.57;7.27;;;28.40;99.90;;;;;;4953772;28;20862;-69
2021/06/29 06:43:55;;;;;;;7.37;7.07;;;28.80;99.90;;;;;;4952840;29;20837;-69
2021/06/29 06:46:22;;;;;;;7.57;7.30;;;28.70;99.90;;;;;;4951675;29;20468;-67
2021/06/29 06:48:48;;;;;;;8.33;7.93;;;28.60;99.90;;;;;;4953861;29;20475;-67
2021/06/29 06:51:17;;;;;;;7.77;7.57;;;28.60;99.90;;;;;;4952851;28;20906;-67
2021/06/29 06:53:46;;;;;;;7.73;7.33;;;29.20;99.90;;;;;;4953513;29;20468;-67
2021/06/29 06:56:15;;;;;;;7.60;7.10;;;29.30;99.90;;;;;;4953407;29;20522;-67
2021/06/29 06:58:42;;;;;;;7.70;7.30;;;29.20;99.90;;;;;;4952136;29;20472;-68
2021/06/29 07:01:09;;;;;;;6.90;6.60;;;29.60;99.90;;;;;;4953465;28;20483;-67
2021/06/29 07:03:36;;;;;;;6.80;6.60;;;29.70;99.90;;;;;;4956553;29;20467;-67
2021/06/29 07:06:03;;;;;;;7.07;6.80;;;29.80;99.90;;;;;;4957612;29;20469;-67
2021/06/29 07:08:29;;;;;;;7.13;6.83;;;30.10;99.90;;;;;;4956810;29;20464;-67
2021/06/29 07:10:58;;;;;;;6.70;6.50;;;30.50;99.90;;;;;;4956653;28;20496;-67
2021/06/29 07:13:25;;;;;;;6.80;6.60;;;30.90;99.90;;;;;;4956668;29;20487;-67
2021/06/29 07:15:52;;;;;;;7.00;6.70;;;31.10;99.90;;;;;;4956856;29;20464;-67
2021/06/29 07:18:19;;;;;;;6.03;5.83;;;31.20;99.90;;;;;;4956215;29;20460;-67
2021/06/29 07:20:47;;;;;;;6.77;6.47;;;30.70;99.90;;;;;;4956909;28;20487;-67
2021/06/29 07:23:14;;;;;;;6.83;6.60;;;30.10;99.90;;;;;;4956726;29;20464;-67
2021/06/29 07:25:41;;;;;;;7.50;7.10;;;29.70;99.90;;;;;;4956263;29;20469;-66
2021/06/29 07:28:10;;;;;;;7.47;7.17;;;29.30;99.90;;;;;;4956342;29;20808;-67
2021/06/29 07:30:37;;;;;;;7.27;6.97;;;29.10;99.90;;;;;;4956595;28;20601;-67
2021/06/29 07:33:04;;;;;;;6.70;6.47;;;29.20;99.90;;;;;;4956428;29;20840;-66
2021/06/29 07:35:31;;;;;;;7.17;6.93;;;29.30;99.90;;;;;;4956514;29;20786;-67
2021/06/29 07:38:00;;;;;;;7.30;6.90;;;29.50;99.90;;;;;;4955737;29;20487;-67
2021/06/29 07:40:27;;;;;;;6.77;6.47;;;29.60;99.90;;;;;;4954528;28;20819;-68
2021/06/29 07:42:55;;;;;;;7.20;6.90;;;29.60;99.90;;;;;;4955748;28;20463;-67
2021/06/29 07:45:25;;;;;;;7.40;7.10;;;29.10;99.90;;;;;;4956412;29;20464;-67
2021/06/29 07:47:52;;;;;;;7.57;7.27;;;28.80;99.90;;;;;;4956077;28;20477;-67
2021/06/29 07:50:19;;;;;;;6.70;6.30;;;28.60;99.90;;;;;;4952784;28;20500;-68
2021/06/29 07:52:46;;;;;;;6.60;6.37;;;28.20;99.90;;;;;;4960052;28;20480;-68
2021/06/29 07:55:13;;;;;;;7.20;6.90;;;27.90;99.90;;;;;;4956292;29;20470;-67
2021/06/29 07:57:39;;;;;;;7.57;6.97;;;27.70;99.90;;;;;;4960848;28;20462;-68
2021/06/29 08:00:10;;;;;;;7.80;7.40;;;27.50;99.90;;;;;;4955882;28;20473;-67
2021/06/29 08:02:38;;;;;;;9.20;8.60;;;27.40;99.90;;;;;;4953592;29;20845;-66
2021/06/29 08:05:06;;;;;;;8.30;7.90;;;27.20;99.90;;;;;;4955406;29;20579;-67
2021/06/29 08:07:33;;;;;;;8.47;8.07;;;27.00;99.90;;;;;;4955391;29;20460;-67
2021/06/29 08:10:00;;;;;;;8.03;7.73;;;26.70;99.90;;;;;;4956076;29;20488;-67
2021/06/29 08:12:26;;;;;;;8.90;8.30;;;26.50;99.90;;;;;;4954186;28;20485;-66
2021/06/29 08:14:53;;;;;;;8.40;8.00;;;26.40;99.90;;;;;;4952327;28;20475;-67
2021/06/29 08:17:19;;;;;;;7.80;7.50;;;26.30;99.90;;;;;;4956401;28;20593;-66
2021/06/29 08:19:48;;;;;;;8.37;7.80;;;26.20;99.90;;;;;;4955495;29;20960;-67
2021/06/29 08:22:15;;;;;;;8.47;8.07;;;26.30;99.90;;;;;;4969211;28;20490;-67
2021/06/29 08:24:43;;;;;;;8.20;7.70;;;26.20;99.90;;;;;;4959093;28;20456;-67
2021/06/29 08:27:10;;;;;;;8.13;7.73;;;26.00;99.90;;;;;;4959974;28;20819;-67
2021/06/29 08:29:36;;;;;;;8.43;8.03;;;26.00;99.90;;;;;;4955678;29;20476;-67
2021/06/29 08:32:04;;;;;;;8.47;8.00;;;26.00;99.90;;;;;;4954037;28;20488;-67
2021/06/29 08:34:30;;;;;;;7.20;6.80;;;26.00;99.90;;;;;;4955752;29;20476;-67
2021/06/29 08:36:59;;;;;;;8.37;7.97;;;25.90;99.90;;;;;;4955514;29;20461;-66
2021/06/29 08:39:26;;;;;;;8.73;8.20;;;26.00;99.90;;;;;;4955728;29;20551;-66
2021/06/29 08:41:52;;;;;;;7.77;7.47;;;26.00;99.90;;;;;;4955310;28;20806;-67
2021/06/29 08:44:19;;;;;;;7.70;7.17;;;26.10;99.90;;;;;;4954712;29;20468;-67
2021/06/29 08:46:46;;;;;;;8.13;7.60;;;26.00;99.90;;;;;;4955057;29;20468;-70
2021/06/29 08:49:13;;;;;;;8.33;7.83;;;25.90;99.90;;;;;;4955946;29;20469;-68
2021/06/29 08:51:40;;;;;;;8.50;8.10;;;25.70;99.90;;;;;;4955149;28;20532;-67
2021/06/29 08:54:08;;;;;;;7.77;7.43;;;25.50;99.90;;;;;;4954204;29;20457;-67
2021/06/29 08:56:35;;;;;;;7.63;7.33;;;25.20;99.90;;;;;;4952219;28;20835;-67
2021/06/29 08:59:01;;;;;;;8.67;7.87;;;25.00;99.90;;;;;;4953363;29;20772;-67
2021/06/29 09:01:29;;;;;;;8.60;8.07;;;24.80;99.90;;;;;;4955258;28;20504;-66
2021/06/29 09:03:56;;;;;;;9.83;9.23;;;24.80;99.90;;;;;;4953303;29;20473;-66
2021/06/29 09:06:30;;;;;;;9.87;9.37;;;24.60;99.90;;;;;;4954857;29;20949;-66
2021/06/29 09:08:57;;;;;;;9.30;8.80;;;24.40;99.90;;;;;;4955334;29;20473;-67
2021/06/29 09:11:25;;;;;;;9.80;9.10;;;24.20;99.90;;;;;;4954563;28;20499;-67
2021/06/29 09:14:06;;;;;;;10.30;9.27;;;23.70;99.90;;;;;;4962835;28;20483;-67
2021/06/29 09:16:33;;;;;;;10.63;9.93;;;23.10;99.90;;;;;;4965176;28;20476;-66
2021/06/29 09:19:01;;;;;;;10.47;9.67;;;22.80;99.90;;;;;;4955073;29;20455;-66
2021/06/29 09:21:34;;;;;;;11.63;10.50;;;22.60;99.90;;;;;;4955095;28;20491;-67
2021/06/29 09:24:01;;;;;;;11.20;10.30;;;22.60;99.90;;;;;;4954830;28;20568;-67
2021/06/29 09:26:30;;;;;;;9.50;9.00;;;22.50;99.90;;;;;;4953674;29;20465;-68
2021/06/29 09:28:58;;;;;;;9.13;8.53;;;22.40;99.90;;;;;;4951268;29;20468;-68
2021/06/29 09:31:27;;;;;;;10.30;9.70;;;22.20;99.90;;;;;;4944436;28;20488;-68
2021/06/29 09:33:56;;;;;;;9.00;8.40;;;22.10;99.90;;;;;;4954080;29;20460;-68
2021/06/29 09:36:24;;;;;;;8.93;8.43;;;22.20;99.90;;;;;;4958508;28;20476;-69
2021/06/29 09:38:53;;;;;;;8.00;7.60;;;22.30;99.90;;;;;;4954368;29;20468;-68
2021/06/29 09:41:21;;;;;;;9.20;8.70;;;22.30;99.90;;;;;;4954203;28;20481;-67
2021/06/29 09:43:52;;;;;;;10.43;9.83;;;22.30;99.90;;;;;;4953941;29;20468;-68
2021/06/29 09:46:21;;;;;;;9.17;8.50;;;22.30;99.90;;;;;;4954298;29;20475;-66
2021/06/29 09:48:52;;;;;;;8.27;7.87;;;22.10;99.90;;;;;;4963296;28;20483;-68
2021/06/29 09:51:21;;;;;;;8.10;7.70;;;22.10;99.90;;;;;;4962641;28;20496;-68
2021/06/29 09:53:51;;;;;;;9.20;8.70;;;22.00;99.90;;;;;;4953961;29;20484;-69
2021/06/29 09:56:19;;;;;;;8.80;8.30;;;22.00;99.90;;;;;;4953910;29;20639;-68
2021/06/29 09:58:50;;;;;;;8.70;8.30;;;21.90;99.90;;;;;;4934409;29;20515;-68
2021/06/29 10:01:19;;;;;;;8.47;7.97;;;21.80;99.90;;;;;;4935492;29;20489;-67
2021/06/29 10:03:50;;;;;;;9.23;8.73;;;21.70;99.90;;;;;;4953795;29;20575;-68
2021/06/29 10:06:18;;;;;;;9.80;9.00;;;21.60;99.90;;;;;;4935107;29;20465;-67
2021/06/29 10:08:47;;;;;;;9.03;8.27;;;21.70;99.90;;;;;;4953887;29;20911;-68
2021/06/29 10:11:22;;;;;;;8.17;7.67;;;21.60;99.90;;;;;;4953530;28;20499;-66
2021/06/29 10:13:57;;;;;;;7.90;7.50;;;21.50;99.90;;;;;;4935658;29;20468;-66
2021/06/29 10:16:26;;;;;;;7.30;6.93;;;21.50;99.90;;;;;;4954346;29;20460;-68
2021/06/29 10:19:15;;;;;;;7.90;7.60;;;21.50;99.90;;;;;;4954010;29;20487;-68
2021/06/29 10:21:44;;;;;;;8.93;8.43;;;21.50;99.90;;;;;;4954019;28;20563;-66
2021/06/29 10:24:14;;;;;;;8.83;8.33;;;21.60;99.90;;;;;;4953732;29;20658;-66
2021/06/29 10:26:43;;;;;;;8.83;8.23;;;21.70;99.90;;;;;;4951344;29;20464;-66
2021/06/29 10:29:14;;;;;;;8.90;8.33;;;21.70;99.90;;;;;;4954410;29;20586;-66
2021/06/29 10:31:44;;;;;;;10.23;9.53;;;21.80;99.90;;;;;;4952851;28;20505;-67
2021/06/29 10:34:11;;;;;;;9.70;9.10;;;22.00;99.90;;;;;;4953329;29;20949;-67
2021/06/29 10:36:42;;;;;;;8.87;8.23;;;22.10;99.90;;;;;;4956716;28;20480;-66
2021/06/29 10:39:11;;;;;;;7.03;6.70;;;22.20;99.90;;;;;;4957973;29;20848;-68
2021/06/29 10:41:41;;;;;;;6.50;6.20;;;22.30;99.90;;;;;;4957293;28;20473;-68
2021/06/29 10:44:13;;;;;;;6.10;5.90;;;22.40;99.90;;;;;;4956859;29;20465;-67
2021/06/29 10:46:44;;;;;;;6.17;5.77;;;22.60;99.90;;;;;;4957317;29;20491;-68
2021/06/29 10:49:46;;;;;;;6.73;6.33;;;22.80;99.90;;;;;;4951397;29;20962;-68
2021/06/29 10:52:37;;;;;;;4.87;4.67;;;23.00;99.90;;;;;;4892159;29;20976;-68
2021/06/29 10:55:06;;;;;;;5.17;4.97;;;23.20;99.90;;;;;;4897884;29;20838;-67
2021/06/29 10:57:39;;;;;;;5.67;5.47;;;23.30;99.90;;;;;;4930755;29;20476;-67
2021/06/29 11:00:28;;;;;;;5.20;5.10;;;23.50;99.90;;;;;;4947353;28;20459;-68
2021/06/29 11:03:03;;;;;;;4.13;4.03;;;23.60;99.90;;;;;;4956715;28;20801;-67
2021/06/29 11:05:32;;;;;;;4.07;4.07;;;23.80;99.90;;;;;;4957672;28;20478;-68
2021/06/29 11:08:06;;;;;;;3.87;3.87;;;23.90;99.90;;;;;;4976003;28;20478;-68
2021/06/29 11:10:36;;;;;;;4.30;4.10;;;24.00;99.90;;;;;;4955471;28;20502;-67
2021/06/29 11:13:04;;;;;;;3.97;3.83;;;24.10;99.90;;;;;;4950596;28;21119;-67
2021/06/29 11:15:49;;;;;;;3.97;3.97;;;24.00;99.90;;;;;;4956495;28;20468;-67
2021/06/29 11:18:17;;;;;;;3.60;3.60;;;23.90;99.90;;;;;;4955731;29;20853;-68
2021/06/29 11:20:47;;;;;;;3.10;3.10;;;23.80;99.90;;;;;;4938092;28;20508;-68
2021/06/29 11:23:29;;;;;;;4.17;4.07;;;23.70;99.90;;;;;;4954160;29;20949;-67
2021/06/29 11:25:57;;;;;;;4.97;4.77;;;23.70;99.90;;;;;;4955574;29;20465;-67
2021/06/29 11:28:26;;;;;;;4.80;4.70;;;23.70;99.90;;;;;;4956257;28;21256;-67
2021/06/29 11:31:03;;;;;;;4.13;4.10;;;23.70;99.90;;;;;;4951983;28;20583;-67
2021/06/29 11:33:36;;;;;;;5.07;4.87;;;23.80;99.90;;;;;;4952642;29;20499;-67
2021/06/29 11:36:05;;;;;;;5.17;4.80;;;24.00;99.90;;;;;;4953156;29;20476;-67
2021/06/29 11:38:34;;;;;;;4.53;4.43;;;24.30;99.90;;;;;;4956453;29;20460;-68
2021/06/29 11:41:26;;;;;;;4.97;4.57;;;24.50;99.90;;;;;;4955180;28;20484;-66
2021/06/29 11:43:54;;;;;;;4.57;4.47;;;24.70;99.90;;;;;;4952509;29;20474;-67
2021/06/29 11:46:46;;;;;;;3.50;3.50;;;24.80;99.90;;;;;;4956704;28;20461;-66
2021/06/29 11:49:15;;;;;;;4.10;3.90;;;24.80;99.90;;;;;;4954677;29;20479;-65
2021/06/29 11:51:49;;;;;;;3.87;3.80;;;24.90;99.90;;;;;;4955896;28;20575;-65
2021/06/29 11:54:26;;;;;;;4.50;4.37;;;25.00;99.90;;;;;;4954574;29;20464;-66
2021/06/29 11:56:52;;;;;;;4.10;4.10;;;24.90;99.90;;;;;;4955308;29;20464;-66
2021/06/29 11:59:26;;;;;;;4.17;4.03;;;25.00;99.90;;;;;;4967903;28;20796;-66
2021/06/29 12:02:05;;;;;;;4.40;4.23;;;25.00;99.90;;;;;;4949139;28;20500;-66
2021/06/29 12:04:32;;;;;;;4.30;4.20;;;24.90;99.90;;;;;;4943450;29;20468;-66
2021/06/29 12:07:04;;;;;;;3.80;3.70;;;25.00;99.90;;;;;;4953368;29;20492;-66
2021/06/29 12:09:31;;;;;;;3.00;3.00;;;25.10;99.90;;;;;;4952175;29;20463;-66
2021/06/29 12:12:18;;;;;;;4.00;3.80;;;25.10;99.90;;;;;;4935709;29;20498;-67
2021/06/29 12:14:45;;;;;;;3.70;3.70;;;24.80;99.90;;;;;;4953229;29;20460;-67
2021/06/29 12:17:13;;;;;;;3.30;3.30;;;24.70;99.90;;;;;;4955349;29;20488;-67
2021/06/29 12:19:40;;;;;;;3.10;3.10;;;24.70;99.90;;;;;;4955641;28;20464;-68
2021/06/29 12:22:07;;;;;;;3.20;3.20;;;24.80;99.90;;;;;;4954607;28;20483;-68
2021/06/29 12:24:35;;;;;;;3.07;2.97;;;24.70;99.90;;;;;;4955262;29;20484;-67
2021/06/29 12:27:03;;;;;;;3.70;3.70;;;24.70;99.90;;;;;;4955684;29;20465;-68
2021/06/29 12:29:30;;;;;;;3.50;3.40;;;24.70;99.90;;;;;;4954527;29;20471;-67
2021/06/29 12:31:57;;;;;;;3.40;3.40;;;24.80;99.90;;;;;;4954867;28;20512;-67
2021/06/29 12:34:25;;;;;;;3.67;3.67;;;24.80;99.90;;;;;;4955174;29;20465;-68
2021/06/29 12:36:52;;;;;;;4.00;3.83;;;24.80;99.90;;;;;;4955272;29;20461;-68
2021/06/29 12:39:19;;;;;;;4.67;4.37;;;24.60;99.90;;;;;;4954876;29;20468;-67
2021/06/29 12:41:47;;;;;;;4.50;4.40;;;24.50;99.90;;;;;;4953899;28;20484;-69
2021/06/29 12:44:14;;;;;;;5.07;4.87;;;24.50;99.90;;;;;;4954151;29;20822;-68
2021/06/29 12:46:43;;;;;;;5.77;5.57;;;24.50;99.90;;;;;;4954807;29;20522;-68
2021/06/29 12:49:11;;;;;;;4.97;4.77;;;24.30;99.90;;;;;;4955309;29;20472;-68
2021/06/29 12:51:41;;;;;;;5.33;5.03;;;24.10;99.90;;;;;;4954108;28;20516;-68
2021/06/29 12:54:09;;;;;;;5.97;5.63;;;24.10;99.90;;;;;;4954396;29;20945;-68
2021/06/29 12:56:38;;;;;;;5.40;5.10;;;24.20;99.90;;;;;;4954418;29;20464;-68
2021/06/29 12:59:06;;;;;;;5.83;5.73;;;24.20;99.90;;;;;;4954496;28;20472;-67
2021/06/29 13:01:35;;;;;;;4.70;4.50;;;24.30;99.90;;;;;;4954491;28;20484;-68
2021/06/29 13:04:08;;;;;;;4.50;4.40;;;24.30;99.90;;;;;;4954381;29;20473;-68
2021/06/29 13:06:35;;;;;;;4.90;4.70;;;24.30;99.90;;;;;;4954660;29;20465;-68
2021/06/29 13:09:09;;;;;;;5.27;5.10;;;24.20;99.90;;;;;;4954733;29;20461;-68
2021/06/29 13:11:37;;;;;;;5.20;4.90;;;24.00;99.90;;;;;;4953925;28;20488;-68
2021/06/29 13:14:06;;;;;;;5.23;5.03;;;24.10;99.90;;;;;;4953565;29;20469;-68
2021/06/29 13:16:34;;;;;;;4.90;4.80;;;24.10;99.90;;;;;;4954680;29;20472;-68
2021/06/29 13:19:01;;;;;;;4.40;4.30;;;24.20;99.90;;;;;;4954615;29;20476;-68
2021/06/29 13:21:31;;;;;;;4.60;4.40;;;24.20;99.90;;;;;;4954382;28;20485;-68
2021/06/29 13:24:06;;;;;;;4.40;4.30;;;24.20;99.90;;;;;;4954266;29;20468;-68
2021/06/29 13:26:49;;;;;;;4.70;4.50;;;24.30;99.90;;;;;;4954270;29;20554;-68
2021/06/29 13:29:21;;;;;;;4.40;4.30;;;24.30;99.90;;;;;;4935617;29;21007;-68
2021/06/29 13:31:48;;;;;;;5.33;5.23;;;24.50;99.90;;;;;;4954270;28;20595;-68
2021/06/29 13:34:22;;;;;;;5.43;5.23;;;24.60;99.90;;;;;;4952780;29;20488;-67
2021/06/29 13:36:49;;;;;;;6.07;5.67;;;24.70;99.90;;;;;;4954038;29;20464;-67
2021/06/29 13:39:29;;;;;;;4.93;4.83;;;24.90;99.90;;;;;;4953172;29;20468;-68
2021/06/29 13:41:59;;;;;;;5.77;5.57;;;25.20;99.90;;;;;;4953864;28;20547;-69
2021/06/29 13:44:26;;;;;;;6.50;6.30;;;25.20;99.90;;;;;;4949927;29;20468;-68
2021/06/29 13:47:06;;;;;;;6.13;5.83;;;25.20;99.90;;;;;;4947306;28;20483;-68
2021/06/29 13:49:33;;;;;;;5.43;5.33;;;25.20;99.90;;;;;;4953696;29;20516;-68
2021/06/29 13:52:11;;;;;;;5.60;5.40;;;25.30;99.90;;;;;;4952518;28;20576;-67
2021/06/29 13:54:39;;;;;;;6.27;6.07;;;25.40;99.90;;;;;;4952531;29;20464;-68
2021/06/29 13:57:07;;;;;;;6.20;6.00;;;25.30;99.90;;;;;;4952777;29;20834;-68
2021/06/29 13:59:36;;;;;;;7.70;7.30;;;25.40;99.90;;;;;;4949794;29;20464;-68
2021/06/29 14:02:03;;;;;;;7.90;7.60;;;25.60;99.90;;;;;;4950143;28;20592;-67
2021/06/29 14:04:30;;;;;;;7.60;7.30;;;25.60;99.90;;;;;;4951662;29;20457;-68
2021/06/29 14:07:11;;;;;;;6.80;6.60;;;25.80;99.90;;;;;;4950312;29;20463;-68
2021/06/29 14:09:39;;;;;;;8.10;7.70;;;26.00;99.90;;;;;;4953230;29;20464;-67
2021/06/29 14:12:08;;;;;;;7.30;7.00;;;26.00;99.90;;;;;;4951481;28;20848;-68
2021/06/29 14:14:36;;;;;;;7.70;7.40;;;25.90;99.90;;;;;;4952716;29;20464;-68
2021/06/29 14:17:04;;;;;;;7.53;7.23;;;26.00;99.90;;;;;;4954150;29;20469;-68
2021/06/29 14:19:31;;;;;;;7.00;6.70;;;25.90;99.90;;;;;;4950441;29;20472;-69
2021/06/29 14:21:59;;;;;;;7.73;7.43;;;25.90;99.90;;;;;;4953955;28;21004;-67
2021/06/29 14:24:25;;;;;;;7.53;7.13;;;25.80;99.90;;;;;;4968266;28;21116;-69
2021/06/29 14:26:52;;;;;;;6.90;6.60;;;25.90;99.90;;;;;;4956913;28;20467;-68
2021/06/29 14:29:20;;;;;;;7.47;7.17;;;25.80;99.90;;;;;;4964040;28;20465;-68
2021/06/29 14:31:46;;;;;;;7.70;7.40;;;25.90;99.90;;;;;;4949018;28;20811;-69
2021/06/29 14:34:13;;;;;;;7.10;6.90;;;26.10;99.90;;;;;;4956427;29;20920;-69
2021/06/29 14:36:40;;;;;;;8.03;7.73;;;26.00;99.90;;;;;;4940335;29;20457;-69
2021/06/29 14:39:06;;;;;;;7.53;7.27;;;25.90;99.90;;;;;;4963291;29;20469;-68
2021/06/29 14:41:33;;;;;;;8.60;8.20;;;25.80;99.90;;;;;;4956554;28;20496;-69
2021/06/29 14:44:00;;;;;;;8.47;8.17;;;25.50;99.90;;;;;;4955067;29;20492;-69
2021/06/29 14:46:28;;;;;;;8.63;8.30;;;25.40;99.90;;;;;;4956167;29;20721;-69
2021/06/29 14:48:55;;;;;;;9.53;9.13;;;25.40;99.90;;;;;;4953457;29;20467;-69
2021/06/29 14:51:25;;;;;;;10.67;10.07;;;25.40;99.90;;;;;;4953554;28;20487;-69
2021/06/29 14:53:52;;;;;;;11.07;10.47;;;25.30;99.90;;;;;;4952936;29;20495;-69
2021/06/29 14:56:19;;;;;;;10.90;10.30;;;24.90;99.90;;;;;;4952703;29;20475;-68
2021/06/29 14:58:45;;;;;;;12.20;11.50;;;24.50;99.90;;;;;;4952335;29;20477;-69
2021/06/29 15:01:12;;;;;;;10.80;10.20;;;24.20;99.90;;;;;;4952713;28;20504;-69
2021/06/29 15:03:40;;;;;;;11.67;10.90;;;24.00;99.90;;;;;;4952547;29;20480;-68
2021/06/29 15:06:07;;;;;;;12.90;12.00;;;23.90;99.90;;;;;;4953618;29;20468;-69
2021/06/29 15:08:33;;;;;;;13.40;12.30;;;23.90;99.90;;;;;;4953049;29;20834;-69
2021/06/29 15:11:00;;;;;;;12.47;11.80;;;23.70;99.90;;;;;;4947128;28;20932;-68
2021/06/29 15:13:27;;;;;;;12.50;11.77;;;23.60;99.90;;;;;;4935909;29;20481;-69
2021/06/29 15:15:54;;;;;;;12.77;11.93;;;23.40;99.90;;;;;;4939317;29;20829;-69
2021/06/29 15:18:20;;;;;;;14.90;14.00;;;23.20;99.90;;;;;;4939442;29;20465;-69
2021/06/29 15:20:48;;;;;;;14.60;13.60;;;23.00;99.90;;;;;;4946658;28;20497;-68
2021/06/29 15:23:18;;;;;;;15.60;14.57;;;22.90;99.90;;;;;;4947479;29;20456;-67
2021/06/29 15:25:45;;;;;;;16.60;15.27;;;23.00;99.90;;;;;;4955527;29;20527;-67
2021/06/29 15:28:11;;;;;;;15.43;14.53;;;23.00;99.90;;;;;;4955661;29;21103;-67
2021/06/29 15:30:38;;;;;;;15.77;14.77;;;22.90;99.90;;;;;;4942661;29;20496;-67
2021/06/29 15:33:05;;;;;;;15.93;14.93;;;22.70;99.90;;;;;;4955235;29;20481;-67
2021/06/29 15:35:32;;;;;;;17.80;16.30;;;22.70;99.90;;;;;;4955006;29;20747;-67
2021/06/29 15:38:01;;;;;;;15.63;14.70;;;22.60;99.90;;;;;;4956138;29;20473;-67
2021/06/29 15:40:29;;;;;;;16.50;15.30;;;22.50;99.90;;;;;;4955633;28;20602;-66
2021/06/29 15:42:57;;;;;;;15.30;14.40;;;22.40;99.90;;;;;;4955238;29;20469;-68
2021/06/29 15:45:24;;;;;;;14.47;13.57;;;22.40;99.90;;;;;;4956264;28;20476;-68
2021/06/29 15:47:53;;;;;;;13.50;12.60;;;22.40;99.90;;;;;;4955763;29;20505;-68
2021/06/29 15:50:19;;;;;;;14.10;13.10;;;22.30;99.90;;;;;;4938366;29;20466;-68
2021/06/29 15:52:46;;;;;;;15.77;14.67;;;22.20;99.90;;;;;;4955161;29;20489;-68
2021/06/29 15:55:16;;;;;;;15.73;14.60;;;22.10;99.90;;;;;;4956368;29;20496;-67
2021/06/29 15:57:44;;;;;;;14.70;13.80;;;22.10;99.90;;;;;;4954920;29;21060;-67
2021/06/29 16:00:13;;;;;;;14.33;13.53;;;22.00;99.90;;;;;;4961927;28;20471;-67
2021/06/29 16:02:40;;;;;;;15.40;14.40;;;22.00;99.90;;;;;;4943344;29;20496;-67
2021/06/29 16:05:10;;;;;;;15.67;14.67;;;22.10;99.90;;;;;;4935169;29;20484;-68
2021/06/29 16:07:37;;;;;;;16.03;15.03;;;22.10;99.90;;;;;;4937652;29;20476;-68
2021/06/29 16:10:04;;;;;;;15.97;14.83;;;22.10;99.90;;;;;;4952596;29;20469;-67
2021/06/29 16:12:32;;;;;;;15.67;14.67;;;22.20;99.90;;;;;;4951591;29;20484;-68
2021/06/29 16:14:59;;;;;;;16.00;14.90;;;22.20;99.90;;;;;;4952069;29;20832;-67
2021/06/29 16:17:26;;;;;;;17.13;15.73;;;22.20;99.90;;;;;;4952872;29;20469;-67
2021/06/29 16:19:53;;;;;;;17.20;16.07;;;22.20;99.90;;;;;;4951725;29;20468;-67
2021/06/29 16:22:20;;;;;;;15.67;14.57;;;22.30;99.90;;;;;;4959156;28;20518;-66
2021/06/29 16:24:47;;;;;;;15.00;14.10;;;22.40;99.90;;;;;;4949467;29;20488;-68
2021/06/29 16:27:13;;;;;;;16.30;15.20;;;22.40;99.90;;;;;;4951865;29;20491;-67
2021/06/29 16:29:41;;;;;;;16.27;14.87;;;22.40;99.90;;;;;;4952304;29;20472;-68
2021/06/29 16:32:08;;;;;;;15.53;14.23;;;22.40;99.90;;;;;;4951149;28;20485;-68
2021/06/29 16:34:35;;;;;;;16.47;15.37;;;22.40;99.90;;;;;;4951707;28;20496;-68
2021/06/29 16:37:02;;;;;;;15.10;14.10;;;22.50;99.90;;;;;;4952252;29;20475;-68
2021/06/29 16:39:30;;;;;;;17.43;16.07;;;22.50;99.90;;;;;;4951889;29;20476;-68
2021/06/29 16:41:57;;;;;;;17.10;15.90;;;22.60;99.90;;;;;;4949453;28;20551;-67
2021/06/29 16:44:26;;;;;;;16.20;15.10;;;22.60;99.90;;;;;;4949205;29;20931;-67
2021/06/29 16:46:54;;;;;;;16.27;15.27;;;22.60;99.90;;;;;;4947459;29;20580;-68
2021/06/29 16:49:23;;;;;;;16.90;15.80;;;22.60;99.90;;;;;;4940565;29;20501;-68